createdAt,value
2019-04-30T00:01:30.899Z,9.60
2019-04-30T00:04:08.401Z,9.60
2019-04-30T00:06:39.671Z,9.61
2019-04-30T00:09:15.124Z,9.61
2019-04-30T00:11:46.178Z,9.61
2019-04-30T00:14:17.139Z,9.65
2019-04-30T00:16:48.183Z,9.61
2019-04-30T00:19:19.928Z,9.61
2019-04-30T00:21:56.923Z,9.59
2019-04-30T00:24:25.847Z,9.63
2019-04-30T00:33:27.501Z,9.68
2019-04-30T00:36:05.874Z,9.68
2019-04-30T00:38:37.911Z,9.66
2019-04-30T00:41:11.266Z,9.68
2019-04-30T00:43:48.032Z,9.69
2019-04-30T00:46:17.423Z,9.66
2019-04-30T00:48:47.461Z,9.74
2019-04-30T00:51:21.359Z,9.71
2019-04-30T00:53:52.524Z,9.68
2019-04-30T00:56:28.107Z,9.62
2019-04-30T00:58:57.747Z,9.70
2019-04-30T01:02:00.484Z,9.74
2019-04-30T01:04:36.969Z,9.73
2019-04-30T01:07:10.025Z,9.73
2019-04-30T01:09:46.477Z,9.76
2019-04-30T01:12:17.399Z,9.71
2019-04-30T01:14:46.836Z,9.71
2019-04-30T01:17:18.897Z,9.72
2019-04-30T01:19:51.114Z,9.72
2019-04-30T01:22:28.164Z,9.79
2019-04-30T01:24:55.010Z,9.77
2019-04-30T01:27:28.329Z,9.86
2019-04-30T01:29:58.994Z,9.75
2019-04-30T01:32:30.309Z,9.71
2019-04-30T01:35:01.293Z,9.74
2019-04-30T01:37:32.850Z,9.74
2019-04-30T01:40:10.599Z,9.76
2019-04-30T01:42:36.596Z,9.76
2019-04-30T01:45:09.459Z,9.74
2019-04-30T01:47:40.455Z,9.75
2019-04-30T01:50:11.378Z,9.72
2019-04-30T01:52:54.051Z,9.71
2019-04-30T01:55:44.569Z,9.68
2019-04-30T01:58:21.577Z,9.64
2019-04-30T02:00:56.100Z,9.64
2019-04-30T02:03:29.115Z,9.64
2019-04-30T02:06:00.711Z,9.60
2019-04-30T02:08:31.957Z,9.59
2019-04-30T02:11:02.719Z,9.60
2019-04-30T02:13:34.527Z,9.58
2019-04-30T02:16:05.990Z,9.60
2019-04-30T02:18:36.748Z,9.60
2019-04-30T02:21:08.957Z,9.59
2019-04-30T02:23:40.049Z,9.58
2019-04-30T02:26:11.061Z,9.56
2019-04-30T02:28:41.866Z,9.54
2019-04-30T02:31:13.406Z,9.55
2019-04-30T02:33:47.075Z,9.54
2019-04-30T02:36:40.322Z,9.55
2019-04-30T02:39:12.311Z,9.53
2019-04-30T02:41:44.005Z,9.46
2019-04-30T02:44:15.222Z,9.45
2019-04-30T02:46:50.317Z,9.46
2019-04-30T02:49:20.673Z,9.44
2019-04-30T02:51:51.854Z,9.36
2019-04-30T02:54:30.640Z,9.37
2019-04-30T02:57:14.050Z,9.34
2019-04-30T03:00:09.697Z,9.33
2019-04-30T03:02:39.646Z,9.36
2019-04-30T03:05:13.503Z,9.35
2019-04-30T03:07:56.284Z,9.36
2019-04-30T03:10:27.154Z,9.33
2019-04-30T03:13:00.007Z,9.32
2019-04-30T03:22:30.117Z,9.26
2019-04-30T03:25:40.572Z,9.24
2019-04-30T03:28:39.699Z,9.33
2019-04-30T03:31:12.635Z,9.27
2019-04-30T03:33:43.795Z,9.26
2019-04-30T03:36:14.545Z,9.24
2019-04-30T03:38:45.852Z,9.22
2019-04-30T03:41:19.915Z,9.24
2019-04-30T03:43:50.540Z,9.17
2019-04-30T03:46:21.938Z,9.16
2019-04-30T03:49:13.372Z,9.14
2019-04-30T03:51:53.849Z,9.16
2019-04-30T03:54:24.849Z,9.12
2019-04-30T03:57:00.398Z,9.10
2019-04-30T03:59:30.573Z,9.08
2019-04-30T04:02:30.036Z,9.04
2019-04-30T04:05:06.952Z,8.97
2019-04-30T04:07:43.502Z,8.95
2019-04-30T04:10:52.938Z,8.93
2019-04-30T04:13:24.235Z,8.95
2019-04-30T04:15:55.466Z,8.94
2019-04-30T04:18:26.735Z,8.99
2019-04-30T04:21:11.133Z,8.95
2019-04-30T04:23:32.886Z,9.00
2019-04-30T04:26:02.629Z,8.98
2019-04-30T04:28:54.378Z,9.03
2019-04-30T04:31:25.222Z,8.99
2019-04-30T04:33:59.793Z,8.99
2019-04-30T04:36:30.234Z,9.04
2019-04-30T04:39:01.452Z,9.02
2019-04-30T04:41:33.965Z,9.04
2019-04-30T04:44:05.217Z,9.09
2019-04-30T04:46:35.958Z,9.08
2019-04-30T04:49:09.029Z,9.11
2019-04-30T04:51:42.279Z,9.18
2019-04-30T04:54:12.296Z,9.19
2019-04-30T04:56:43.767Z,9.17
2019-04-30T04:59:14.788Z,9.28
2019-04-30T05:01:45.787Z,9.30
2019-04-30T05:04:16.815Z,9.30
2019-04-30T05:06:49.770Z,9.30
2019-04-30T05:09:20.625Z,9.26
2019-04-30T05:11:51.689Z,9.31
2019-04-30T05:14:22.945Z,9.46
2019-04-30T05:16:53.913Z,9.42
2019-04-30T05:19:24.800Z,9.46
2019-04-30T05:21:55.782Z,9.49
2019-04-30T05:24:28.606Z,9.56
2019-04-30T05:26:59.931Z,9.56
2019-04-30T05:29:31.958Z,9.58
2019-04-30T05:32:02.877Z,9.62
2019-04-30T05:34:33.645Z,9.62
2019-04-30T05:37:04.461Z,9.62
2019-04-30T05:39:35.465Z,9.61
2019-04-30T05:42:06.296Z,9.65
2019-04-30T05:44:39.487Z,9.68
2019-04-30T05:47:10.433Z,9.72
2019-04-30T05:49:41.558Z,9.77
2019-04-30T05:52:12.555Z,9.83
2019-04-30T05:54:43.366Z,9.85
2019-04-30T05:57:14.330Z,9.85
2019-04-30T05:59:51.388Z,9.89
2019-04-30T06:02:30.750Z,9.94
2019-04-30T06:05:02.653Z,9.84
2019-04-30T06:07:34.991Z,9.81
2019-04-30T06:10:16.346Z,9.91
2019-04-30T06:13:02.426Z,9.93
2019-04-30T06:15:45.357Z,10.00
2019-04-30T06:18:43.256Z,9.89
2019-04-30T06:21:27.027Z,9.82
2019-04-30T06:24:05.952Z,9.91
2019-04-30T06:26:45.438Z,9.93
2019-04-30T06:29:39.048Z,9.93
2019-04-30T06:32:34.750Z,9.98
2019-04-30T06:35:05.703Z,10.02
2019-04-30T06:37:39.103Z,10.01
2019-04-30T06:40:11.762Z,10.05
2019-04-30T06:42:42.770Z,10.07
2019-04-30T06:45:13.770Z,10.19
2019-04-30T06:47:44.911Z,10.22
2019-04-30T06:50:16.842Z,10.23
2019-04-30T06:52:56.641Z,10.31
2019-04-30T06:55:20.051Z,10.28
2019-04-30T06:57:51.150Z,10.34
2019-04-30T07:00:32.806Z,10.37
2019-04-30T07:02:59.102Z,10.33
2019-04-30T07:05:29.927Z,10.28
2019-04-30T07:08:19.018Z,10.26
2019-04-30T07:11:11.220Z,10.31
2019-04-30T07:13:44.846Z,10.38
2019-04-30T07:16:15.602Z,10.51
2019-04-30T07:18:48.774Z,10.63
2019-04-30T07:21:20.057Z,10.65
2019-04-30T07:23:51.889Z,10.74
2019-04-30T07:26:24.616Z,10.78
2019-04-30T07:28:55.855Z,10.92
2019-04-30T07:31:29.365Z,11.15
2019-04-30T07:33:59.936Z,11.46
2019-04-30T07:36:45.914Z,11.85
2019-04-30T07:39:05.918Z,11.77
2019-04-30T07:41:36.662Z,12.39
2019-04-30T07:44:10.777Z,12.57
2019-04-30T07:46:45.150Z,12.33
2019-04-30T07:49:12.827Z,12.48
2019-04-30T07:51:44.565Z,12.32
2019-04-30T07:54:15.665Z,12.38
2019-04-30T07:56:46.415Z,12.38
2019-04-30T07:59:19.944Z,12.18
2019-04-30T08:02:06.661Z,11.64
2019-04-30T08:04:40.869Z,11.29
2019-04-30T08:07:11.585Z,11.35
2019-04-30T08:09:42.812Z,11.26
2019-04-30T08:12:21.592Z,11.33
2019-04-30T08:14:49.432Z,11.70
2019-04-30T08:17:19.483Z,12.23
2019-04-30T08:19:50.312Z,12.46
2019-04-30T08:22:21.285Z,12.83
2019-04-30T08:24:52.307Z,12.91
2019-04-30T08:27:23.620Z,12.84
2019-04-30T08:29:54.394Z,12.80
2019-04-30T08:32:25.386Z,13.05
2019-04-30T08:34:56.158Z,13.19
2019-04-30T08:37:28.710Z,13.39
2019-04-30T08:40:03.397Z,13.53
2019-04-30T08:42:34.268Z,13.20
2019-04-30T08:45:06.169Z,13.55
2019-04-30T08:47:39.304Z,13.58
2019-04-30T08:50:10.437Z,13.46
2019-04-30T08:52:41.391Z,13.08
2019-04-30T08:55:16.784Z,12.78
2019-04-30T08:57:45.443Z,12.69
2019-04-30T09:00:16.874Z,12.84
2019-04-30T09:02:49.184Z,13.11
2019-04-30T09:05:30.635Z,13.28
2019-04-30T09:08:01.803Z,13.28
2019-04-30T09:10:32.542Z,13.59
2019-04-30T09:13:03.637Z,13.47
2019-04-30T09:15:35.598Z,13.69
2019-04-30T09:18:10.235Z,13.73
2019-04-30T09:20:39.309Z,14.15
2019-04-30T09:23:43.972Z,14.15
2019-04-30T09:26:29.154Z,14.31
2019-04-30T09:32:55.883Z,14.32
2019-04-30T09:35:46.117Z,14.65
2019-04-30T09:38:29.319Z,14.73
2019-04-30T09:41:12.874Z,14.73
2019-04-30T09:43:43.874Z,14.94
2019-04-30T09:46:22.026Z,15.14
2019-04-30T09:48:47.160Z,14.97
2019-04-30T09:51:20.686Z,15.05
2019-04-30T09:53:58.820Z,15.17
2019-04-30T09:56:23.817Z,14.96
2019-04-30T09:58:54.615Z,15.17
2019-04-30T10:01:25.444Z,15.27
2019-04-30T10:03:56.530Z,15.39
2019-04-30T10:06:39.054Z,15.52
2019-04-30T10:09:00.078Z,15.61
2019-04-30T10:11:41.999Z,15.92
2019-04-30T10:14:13.165Z,15.64
2019-04-30T10:17:03.546Z,15.83
2019-04-30T10:19:34.654Z,16.09
2019-04-30T10:22:31.110Z,16.21
2019-04-30T10:25:03.626Z,16.03
2019-04-30T10:28:14.477Z,15.93
2019-04-30T10:31:24.208Z,15.70
2019-04-30T10:33:58.532Z,15.83
2019-04-30T10:36:54.043Z,16.03
2019-04-30T10:39:50.720Z,16.27
2019-04-30T10:42:21.790Z,16.22
2019-04-30T10:44:52.606Z,16.66
2019-04-30T10:47:23.901Z,16.65
2019-04-30T10:49:54.894Z,16.08
2019-04-30T10:52:25.963Z,16.50
2019-04-30T10:54:57.034Z,16.62
2019-04-30T10:57:28.508Z,16.60
2019-04-30T10:59:59.260Z,16.61
2019-04-30T11:02:31.184Z,16.51
2019-04-30T11:05:02.056Z,16.60
2019-04-30T11:07:32.884Z,16.45
2019-04-30T11:10:03.946Z,16.97
2019-04-30T11:12:35.599Z,16.90
2019-04-30T11:15:07.565Z,17.09
2019-04-30T11:17:39.643Z,17.26
2019-04-30T11:20:10.805Z,16.84
2019-04-30T11:22:42.336Z,16.94
2019-04-30T11:25:13.485Z,17.13
2019-04-30T11:27:44.955Z,17.41
2019-04-30T11:30:21.346Z,17.70
2019-04-30T11:32:49.052Z,17.48
2019-04-30T11:35:20.757Z,17.77
2019-04-30T11:37:51.721Z,17.53
2019-04-30T11:40:33.914Z,17.84
2019-04-30T11:43:02.491Z,17.78
2019-04-30T11:46:12.025Z,17.78
2019-04-30T11:48:42.848Z,18.10
2019-04-30T11:51:14.774Z,18.37
2019-04-30T11:53:46.139Z,17.95
2019-04-30T11:56:16.951Z,18.05
2019-04-30T11:58:48.915Z,17.93
2019-04-30T12:01:22.003Z,18.20
2019-04-30T12:03:53.284Z,17.97
2019-04-30T12:06:24.084Z,17.78
2019-04-30T12:09:12.595Z,17.92
2019-04-30T12:11:43.845Z,18.00
2019-04-30T12:14:14.657Z,18.46
2019-04-30T12:16:45.709Z,18.38
2019-04-30T12:19:18.906Z,17.98
2019-04-30T12:21:49.736Z,18.40
2019-04-30T12:24:20.716Z,18.39
2019-04-30T12:26:51.774Z,18.07
2019-04-30T12:29:22.878Z,18.83
2019-04-30T12:35:44.814Z,18.66
2019-04-30T12:38:19.074Z,18.48
2019-04-30T12:40:49.709Z,18.96
2019-04-30T12:43:20.711Z,18.89
2019-04-30T12:46:02.246Z,18.70
2019-04-30T12:48:42.951Z,19.09
2019-04-30T12:51:31.213Z,19.06
2019-04-30T12:54:06.990Z,19.14
2019-04-30T12:57:03.904Z,18.76
2019-04-30T12:59:34.747Z,18.82
2019-04-30T13:02:05.712Z,18.63
2019-04-30T13:04:36.458Z,19.09
2019-04-30T13:07:09.857Z,19.51
2019-04-30T13:09:41.308Z,19.31
2019-04-30T13:12:14.378Z,19.44
2019-04-30T13:14:53.907Z,19.62
2019-04-30T13:17:19.935Z,19.82
2019-04-30T13:19:50.917Z,19.87
2019-04-30T13:22:21.643Z,19.84
2019-04-30T13:24:52.486Z,20.07
2019-04-30T13:27:23.499Z,20.05
2019-04-30T13:30:13.972Z,19.96
2019-04-30T13:32:51.413Z,19.14
2019-04-30T13:35:22.224Z,19.50
2019-04-30T13:37:57.636Z,19.79
2019-04-30T13:40:48.963Z,19.29
2019-04-30T13:43:26.934Z,19.46
2019-04-30T13:45:58.596Z,19.69
2019-04-30T13:48:29.514Z,20.09
2019-04-30T13:51:00.556Z,19.54
2019-04-30T13:53:31.291Z,19.50
2019-04-30T13:56:02.013Z,19.48
2019-04-30T13:58:33.206Z,19.29
2019-04-30T14:01:04.338Z,19.53
2019-04-30T14:03:40.736Z,19.75
2019-04-30T14:06:13.214Z,19.36
2019-04-30T14:08:48.812Z,19.49
2019-04-30T14:11:20.040Z,19.61
2019-04-30T14:13:50.870Z,19.57
2019-04-30T14:16:22.202Z,19.86
2019-04-30T14:18:52.923Z,19.55
2019-04-30T14:21:33.174Z,19.43
2019-04-30T14:23:56.551Z,19.51
2019-04-30T14:26:29.111Z,19.65
2019-04-30T14:29:00.932Z,19.77
2019-04-30T14:31:32.010Z,19.67
2019-04-30T14:34:02.953Z,19.81
2019-04-30T14:36:33.690Z,19.44
2019-04-30T14:39:14.676Z,19.42
2019-04-30T14:41:40.730Z,19.40
2019-04-30T14:44:17.569Z,19.62
2019-04-30T14:47:12.473Z,19.18
2019-04-30T14:50:18.624Z,19.37
2019-04-30T14:53:04.059Z,19.57
2019-04-30T14:56:08.801Z,19.57
2019-04-30T14:58:55.953Z,19.55
2019-04-30T15:01:36.107Z,19.33
2019-04-30T15:04:06.906Z,19.34
2019-04-30T15:06:37.717Z,19.22
2019-04-30T15:09:08.578Z,19.18
2019-04-30T15:11:39.612Z,19.55
2019-04-30T15:14:10.817Z,19.28
2019-04-30T15:16:42.043Z,19.50
2019-04-30T15:19:12.999Z,19.37
2019-04-30T15:21:43.961Z,19.56
2019-04-30T15:24:29.296Z,19.39
2019-04-30T15:27:00.517Z,19.38
2019-04-30T15:29:31.487Z,19.29
2019-04-30T15:32:02.518Z,19.51
2019-04-30T15:34:33.240Z,19.29
2019-04-30T15:37:04.316Z,19.37
2019-04-30T15:39:43.384Z,19.22
2019-04-30T15:48:06.371Z,19.22
2019-04-30T15:50:39.167Z,19.22
2019-04-30T15:53:34.407Z,19.21
2019-04-30T15:56:34.355Z,19.28
2019-04-30T15:59:39.521Z,19.25
2019-04-30T16:02:29.546Z,19.36
2019-04-30T16:05:18.559Z,19.17
2019-04-30T16:07:59.627Z,19.21
2019-04-30T16:10:53.082Z,19.13
2019-04-30T16:14:02.369Z,19.18
2019-04-30T16:17:11.497Z,19.13
2019-04-30T16:20:01.637Z,19.33
2019-04-30T16:22:53.588Z,18.92
2019-04-30T16:25:24.307Z,18.93
2019-04-30T16:27:55.230Z,18.90
2019-04-30T16:30:26.023Z,18.79
2019-04-30T16:32:56.981Z,18.93
2019-04-30T16:35:29.559Z,18.99
2019-04-30T16:38:01.876Z,18.98
2019-04-30T16:40:32.677Z,18.92
2019-04-30T16:43:03.482Z,19.05
2019-04-30T16:45:34.435Z,18.80
2019-04-30T16:48:06.546Z,19.11
2019-04-30T16:50:37.599Z,19.33
2019-04-30T16:53:08.457Z,19.77
2019-04-30T16:55:39.498Z,20.06
2019-04-30T16:58:10.367Z,19.80
2019-04-30T17:00:41.393Z,20.12
2019-04-30T17:03:20.627Z,20.03
2019-04-30T17:05:56.691Z,19.72
2019-04-30T17:08:46.706Z,18.92
2019-04-30T17:12:15.407Z,18.32
2019-04-30T17:14:49.204Z,17.70
2019-04-30T17:17:19.979Z,17.54
2019-04-30T17:19:50.710Z,17.19
2019-04-30T17:22:21.927Z,17.00
2019-04-30T17:24:52.879Z,16.89
2019-04-30T17:27:23.943Z,16.65
2019-04-30T17:29:54.784Z,16.58
2019-04-30T17:32:25.806Z,16.50
2019-04-30T17:34:58.770Z,16.28
2019-04-30T17:37:31.534Z,15.93
2019-04-30T17:40:01.935Z,15.78
2019-04-30T17:42:33.848Z,15.60
2019-04-30T17:45:05.160Z,15.36
2019-04-30T17:47:36.037Z,15.20
2019-04-30T17:50:08.979Z,15.02
2019-04-30T17:52:40.099Z,14.95
2019-04-30T17:55:10.907Z,14.81
2019-04-30T17:57:42.044Z,14.66
2019-04-30T18:00:18.713Z,14.51
2019-04-30T18:02:47.007Z,14.38
2019-04-30T18:05:19.482Z,14.20
2019-04-30T18:07:50.628Z,14.00
2019-04-30T18:10:21.716Z,13.91
2019-04-30T18:12:53.034Z,13.79
2019-04-30T18:15:25.619Z,13.58
2019-04-30T18:18:16.029Z,13.44
2019-04-30T18:20:56.956Z,13.28
2019-04-30T18:23:48.598Z,13.15
2019-04-30T18:26:20.521Z,12.91
2019-04-30T18:28:51.610Z,12.76
2019-04-30T18:31:23.230Z,12.59
2019-04-30T18:33:54.212Z,12.45
2019-04-30T18:36:25.569Z,12.24
2019-04-30T18:38:56.555Z,12.15
2019-04-30T18:41:27.617Z,12.04
2019-04-30T18:43:59.715Z,12.02
2019-04-30T18:46:30.865Z,11.84
2019-04-30T18:49:01.886Z,11.69
2019-04-30T18:51:39.044Z,11.61
2019-04-30T18:54:05.601Z,11.51
2019-04-30T18:56:36.582Z,11.46
2019-04-30T18:59:08.791Z,11.37
2019-04-30T19:01:40.327Z,11.27
2019-04-30T19:04:11.569Z,11.27
2019-04-30T19:06:42.627Z,11.13
2019-04-30T19:09:35.288Z,11.04
2019-04-30T19:12:23.868Z,10.97
2019-04-30T19:15:13.833Z,10.88
2019-04-30T19:18:03.228Z,10.78
2019-04-30T19:20:39.671Z,10.73
2019-04-30T19:23:10.766Z,10.63
2019-04-30T19:25:41.571Z,10.58
2019-04-30T19:28:14.590Z,10.49
2019-04-30T19:30:54.963Z,10.48
2019-04-30T19:33:18.078Z,10.44
2019-04-30T19:35:50.626Z,10.40
2019-04-30T19:38:21.658Z,10.40
2019-04-30T19:40:52.479Z,10.30
2019-04-30T19:43:23.211Z,10.23
2019-04-30T19:45:54.478Z,10.20
2019-04-30T19:48:25.922Z,10.13
2019-04-30T19:50:58.590Z,10.08
2019-04-30T19:53:30.401Z,10.10
2019-04-30T19:56:01.276Z,10.03
2019-04-30T19:58:46.730Z,10.04
2019-04-30T20:01:04.704Z,9.96
2019-04-30T20:03:36.390Z,9.89
2019-04-30T20:06:09.007Z,9.85
2019-04-30T20:08:40.952Z,9.77
2019-04-30T20:11:11.987Z,9.76
2019-04-30T20:13:42.725Z,9.70
2019-04-30T20:16:13.631Z,9.64
2019-04-30T20:18:44.342Z,9.63
2019-04-30T20:21:26.300Z,9.57
2019-04-30T20:23:51.431Z,9.53
2019-04-30T20:26:22.243Z,9.50
2019-04-30T20:28:52.974Z,9.53
2019-04-30T20:31:23.700Z,9.56
2019-04-30T20:33:55.391Z,9.51
2019-04-30T20:36:26.346Z,9.50
2019-04-30T20:39:19.194Z,9.52
2019-04-30T20:41:52.243Z,9.51
2019-04-30T20:44:23.051Z,9.43
2019-04-30T20:46:55.079Z,9.38
2019-04-30T20:49:26.761Z,9.39
2019-04-30T20:51:58.968Z,9.35
2019-04-30T20:54:30.021Z,9.27
2019-04-30T20:57:01.007Z,9.24
2019-04-30T20:59:32.114Z,9.23
2019-04-30T21:02:02.848Z,9.30
2019-04-30T21:04:33.915Z,9.25
2019-04-30T21:07:04.720Z,9.31
2019-04-30T21:09:35.699Z,9.34
2019-04-30T21:12:08.865Z,9.25
2019-04-30T21:14:40.608Z,9.18
2019-04-30T21:17:11.433Z,9.26
2019-04-30T21:19:42.151Z,9.22
2019-04-30T21:22:12.966Z,9.30
2019-04-30T21:24:43.687Z,9.24
2019-04-30T21:27:14.500Z,9.37
2019-04-30T21:29:45.481Z,9.31
2019-04-30T21:32:38.802Z,9.42
2019-04-30T21:35:27.297Z,9.52
2019-04-30T21:37:58.998Z,9.68
2019-04-30T21:40:31.136Z,9.74
2019-04-30T21:46:37.654Z,9.78
2019-04-30T21:49:18.149Z,9.75
2019-04-30T21:51:49.434Z,9.74
2019-04-30T21:54:20.435Z,9.74
2019-04-30T21:57:10.382Z,9.71
2019-04-30T21:59:42.755Z,9.68
2019-04-30T22:02:13.573Z,9.64
2019-04-30T22:04:44.834Z,9.69
2019-04-30T22:07:15.750Z,9.76
2019-04-30T22:09:46.477Z,9.75
2019-04-30T22:12:19.026Z,9.79
2019-04-30T22:14:49.815Z,9.79
2019-04-30T22:17:21.127Z,9.78
2019-04-30T22:19:51.853Z,9.74
2019-04-30T22:22:23.816Z,9.69
2019-04-30T22:24:54.543Z,9.66
2019-04-30T22:27:25.286Z,9.62
2019-04-30T22:29:56.246Z,9.63
2019-04-30T22:32:27.001Z,9.59
2019-04-30T22:35:11.739Z,9.56
2019-04-30T22:37:42.718Z,9.56
2019-04-30T22:40:13.605Z,9.56
2019-04-30T22:42:44.354Z,9.54
2019-04-30T22:45:32.914Z,9.52
2019-04-30T22:48:03.663Z,9.51
2019-04-30T22:50:34.722Z,9.49
2019-04-30T22:53:05.694Z,9.48
2019-04-30T22:55:36.419Z,9.41
2019-04-30T22:58:07.488Z,9.38
2019-04-30T23:00:42.109Z,9.43
2019-04-30T23:03:15.603Z,9.39
2019-04-30T23:05:46.695Z,9.38
2019-04-30T23:08:17.507Z,9.36
2019-04-30T23:10:48.675Z,9.23
2019-04-30T23:13:19.644Z,9.22
2019-04-30T23:15:52.715Z,9.13
2019-04-30T23:18:23.875Z,9.17
2019-04-30T23:20:54.605Z,9.09
2019-04-30T23:23:25.368Z,9.04
2019-04-30T23:25:56.095Z,9.05
2019-04-30T23:28:27.084Z,9.10
2019-04-30T23:30:57.810Z,9.07
2019-04-30T23:33:28.561Z,9.04
2019-04-30T23:35:59.537Z,9.06
2019-04-30T23:38:31.576Z,9.02
2019-04-30T23:41:02.371Z,8.97
2019-04-30T23:43:33.119Z,9.02
2019-04-30T23:46:04.220Z,9.05
2019-04-30T23:48:35.212Z,9.12
2019-04-30T23:51:05.940Z,8.99
2019-04-30T23:53:36.960Z,9.00
2019-04-30T23:56:08.009Z,8.98
2019-04-30T23:58:39.016Z,8.94
